Time;durP1;ratioP1;P1;durP2;ratioP2;P2;SDS_P1;SDS_P2;PMS_P1;PMS_P2;Temp;Humidity;BMP_temperature;BMP_pressure;BME280_temperature;BME280_humidity;BME280_pressure;Samples;Min_cycle;Max_cycle;Signal;HPM_P1;HPM_P2
2023/10/29 00:02:16;;;;;;;2.43;1.37;;;7.80;16.60;;;;;;8326388;28;20209;-60
2023/10/29 00:06:17;;;;;;;3.47;1.63;;;7.70;99.90;;;;;;8334582;28;20212;-66
2023/10/29 00:10:18;;;;;;;3.33;1.70;;;7.70;34.80;;;;;;8328155;28;20178;-66
2023/10/29 00:14:19;;;;;;;3.77;1.50;;;7.60;99.90;;;;;;8325974;28;20629;-68
2023/10/29 00:18:20;;;;;;;3.83;1.67;;;7.60;99.90;;;;;;8326830;28;20182;-66
2023/10/29 00:22:21;;;;;;;5.67;2.00;;;7.50;99.90;;;;;;8329445;28;20213;-67
2023/10/29 00:26:22;;;;;;;2.53;1.30;;;7.50;99.90;;;;;;8326592;28;20182;-62
2023/10/29 00:30:23;;;;;;;4.20;2.00;;;7.40;99.90;;;;;;8323694;28;20270;-62
2023/10/29 00:34:23;;;;;;;3.27;1.40;;;7.50;99.90;;;;;;8335027;28;20341;-61
2023/10/29 00:38:24;;;;;;;1.43;1.10;;;7.50;99.90;;;;;;8327422;28;20192;-61
2023/10/29 00:42:25;;;;;;;3.60;1.70;;;7.40;99.90;;;;;;8328685;28;20206;-62
2023/10/29 00:46:26;;;;;;;2.87;1.73;;;7.30;99.90;;;;;;8325651;28;20178;-62
2023/10/29 00:50:27;;;;;;;3.10;1.50;;;7.30;99.90;;;;;;8326934;28;20186;-62
2023/10/29 00:54:28;;;;;;;3.57;1.67;;;7.20;99.90;;;;;;8324913;28;20288;-62
2023/10/29 00:58:29;;;;;;;2.73;1.50;;;7.20;99.90;;;;;;8328922;28;20193;-62
2023/10/29 01:02:31;;;;;;;6.07;1.73;;;7.10;99.90;;;;;;8327718;28;20226;-61
2023/10/29 01:06:35;;;;;;;5.23;2.17;;;7.00;99.90;;;;;;8342603;28;20178;-61
2023/10/29 01:10:36;;;;;;;3.30;1.87;;;6.90;99.90;;;;;;8322242;28;20189;-62
2023/10/29 01:14:36;;;;;;;1.77;1.43;;;6.80;99.90;;;;;;8333737;28;20177;-63
2023/10/29 01:18:37;;;;;;;4.30;1.70;;;6.80;99.90;;;;;;8333013;28;20182;-60
2023/10/29 01:22:38;;;;;;;3.17;2.03;;;6.80;99.90;;;;;;8335772;28;20206;-61
2023/10/29 01:26:39;;;;;;;2.00;1.53;;;6.80;99.90;;;;;;8324439;28;20204;-61
2023/10/29 01:30:40;;;;;;;3.60;1.50;;;6.80;99.90;;;;;;8326024;28;20190;-61
2023/10/29 01:34:42;;;;;;;3.80;1.93;;;6.80;99.90;;;;;;8328842;28;20191;-67
2023/10/29 01:38:42;;;;;;;2.33;1.93;;;6.80;99.90;;;;;;8327412;28;20293;-65
2023/10/29 01:42:45;;;;;;;4.90;2.00;;;6.90;99.90;;;;;;8328389;28;20212;-67
2023/10/29 01:46:46;;;;;;;3.03;2.03;;;7.00;99.90;;;;;;8329423;28;20182;-67
2023/10/29 01:50:47;;;;;;;4.13;2.30;;;7.20;99.90;;;;;;8330914;28;20224;-67
2023/10/29 01:54:48;;;;;;;4.63;2.40;;;7.40;99.90;;;;;;8328361;28;20205;-66
2023/10/29 01:58:48;;;;;;;4.60;2.00;;;7.60;99.90;;;;;;8328356;28;20182;-67
2023/10/29 02:02:50;;;;;;;3.27;2.17;;;7.80;99.90;;;;;;8350440;28;20503;-68
2023/10/29 02:06:50;;;;;;;3.83;1.70;;;7.80;99.90;;;;;;8329720;28;20179;-66
2023/10/29 02:10:51;;;;;;;4.03;1.83;;;7.90;99.90;;;;;;8333543;28;20626;-67
2023/10/29 02:14:52;;;;;;;3.13;1.80;;;7.90;99.90;;;;;;8338518;28;20187;-64
2023/10/29 02:18:53;;;;;;;2.80;1.63;;;7.90;99.90;;;;;;8331632;28;20181;-67
2023/10/29 02:22:54;;;;;;;3.33;2.00;;;8.00;99.90;;;;;;8330831;28;20214;-67
2023/10/29 02:26:55;;;;;;;5.23;2.20;;;8.10;99.90;;;;;;8340536;28;20174;-65
2023/10/29 02:30:55;;;;;;;3.07;1.60;;;8.20;99.90;;;;;;8333081;28;20178;-67
2023/10/29 02:34:56;;;;;;;2.33;1.63;;;8.20;99.90;;;;;;8333416;28;20271;-68
2023/10/29 02:38:58;;;;;;;3.07;1.83;;;8.30;99.90;;;;;;8331930;28;20210;-66
2023/10/29 02:42:58;;;;;;;3.50;1.67;;;8.30;99.90;;;;;;8338809;28;20212;-67
2023/10/29 02:46:59;;;;;;;2.90;1.60;;;8.40;99.90;;;;;;8329795;28;20456;-65
2023/10/29 02:51:00;;;;;;;3.00;1.73;;;8.40;99.90;;;;;;8329695;28;20184;-67
2023/10/29 02:55:01;;;;;;;3.43;1.87;;;8.40;99.90;;;;;;8332485;28;20246;-67
2023/10/29 02:59:02;;;;;;;3.47;2.10;;;8.50;99.90;;;;;;8329494;28;20268;-67
2023/10/29 03:03:03;;;;;;;3.70;1.77;;;8.40;99.90;;;;;;8328455;28;20208;-66
2023/10/29 03:07:04;;;;;;;4.97;2.27;;;8.40;99.90;;;;;;8334559;28;20213;-67
2023/10/29 03:11:05;;;;;;;2.03;1.60;;;8.30;99.90;;;;;;8328365;28;20595;-67
2023/10/29 03:15:06;;;;;;;3.17;1.90;;;8.20;99.90;;;;;;8329510;28;20677;-68
2023/10/29 03:19:07;;;;;;;3.13;1.70;;;8.00;99.90;;;;;;8337496;28;20213;-67
2023/10/29 03:23:09;;;;;;;2.40;2.00;;;7.90;99.90;;;;;;8347774;28;20211;-66
2023/10/29 03:27:09;;;;;;;3.10;1.90;;;7.80;99.90;;;;;;8332068;28;20178;-67
2023/10/29 03:31:14;;;;;;;2.43;1.73;;;7.70;99.90;;;;;;8328431;28;20187;-66
2023/10/29 03:35:17;;;;;;;4.03;2.00;;;7.70;99.90;;;;;;8330832;28;20190;-68
2023/10/29 03:39:18;;;;;;;3.40;2.10;;;7.60;99.90;;;;;;8326182;28;20195;-64
2023/10/29 03:43:18;;;;;;;5.57;2.30;;;7.60;99.90;;;;;;8333311;28;20225;-66
2023/10/29 03:47:19;;;;;;;2.53;2.13;;;7.60;99.90;;;;;;8327588;28;20375;-67
2023/10/29 03:51:21;;;;;;;3.07;1.90;;;7.60;99.90;;;;;;8331253;28;20193;-66
2023/10/29 03:55:22;;;;;;;2.37;2.10;;;7.70;99.90;;;;;;8333109;28;20196;-62
2023/10/29 03:59:23;;;;;;;2.70;2.10;;;7.80;99.90;;;;;;8330314;28;20219;-62
2023/10/29 04:03:24;;;;;;;3.63;2.40;;;7.90;99.90;;;;;;8329921;28;20210;-61
2023/10/29 04:07:25;;;;;;;2.97;2.67;;;8.00;99.90;;;;;;8342610;28;20179;-61
2023/10/29 04:11:26;;;;;;;3.27;2.73;;;8.20;99.90;;;;;;8329808;28;20183;-61
2023/10/29 04:15:27;;;;;;;3.27;2.43;;;8.30;99.90;;;;;;8328320;28;20917;-60
2023/10/29 04:19:28;;;;;;;4.17;3.03;;;8.40;99.90;;;;;;8328779;28;20190;-62
2023/10/29 04:23:28;;;;;;;3.33;3.00;;;8.40;99.90;;;;;;8345928;28;20216;-61
2023/10/29 04:27:30;;;;;;;5.30;3.33;;;8.40;99.90;;;;;;8336605;28;20240;-62
2023/10/29 04:31:31;;;;;;;6.57;3.40;;;8.40;99.90;;;;;;8329339;28;20216;-61
2023/10/29 04:35:32;;;;;;;5.83;4.00;;;8.40;99.90;;;;;;8328193;28;20198;-62
2023/10/29 04:39:32;;;;;;;6.83;4.63;;;8.40;99.90;;;;;;8326263;28;20183;-61
2023/10/29 04:43:33;;;;;;;13.87;10.10;;;8.40;99.90;;;;;;8334498;28;20595;-61
2023/10/29 04:47:34;;;;;;;12.53;8.73;;;8.50;99.90;;;;;;8334428;28;20211;-62
2023/10/29 04:51:36;;;;;;;9.77;7.40;;;8.50;99.90;;;;;;8327132;28;20213;-61
2023/10/29 04:55:36;;;;;;;9.07;6.90;;;8.50;99.90;;;;;;8329843;28;20251;-61
2023/10/29 04:59:37;;;;;;;17.67;11.47;;;8.40;99.90;;;;;;8325434;28;20241;-61
2023/10/29 05:03:39;;;;;;;10.30;8.87;;;8.40;99.90;;;;;;8327238;28;20224;-67
2023/10/29 05:07:41;;;;;;;17.00;12.77;;;8.30;99.90;;;;;;8328946;28;20202;-67
2023/10/29 05:11:41;;;;;;;25.20;14.50;;;8.20;99.90;;;;;;8326615;28;20291;-66
2023/10/29 05:15:43;;;;;;;24.27;16.33;;;8.10;99.90;;;;;;8322787;28;20195;-64
2023/10/29 05:19:45;;;;;;;16.97;12.27;;;7.90;99.90;;;;;;8325862;28;20190;-66
2023/10/29 05:23:47;;;;;;;16.43;11.13;;;7.70;99.90;;;;;;8325520;28;20249;-67
2023/10/29 05:27:55;;;;;;;16.23;10.23;;;7.60;99.90;;;;;;8320126;28;20376;-64
2023/10/29 05:31:56;;;;;;;17.27;9.27;;;7.50;99.90;;;;;;8328929;28;20243;-66
2023/10/29 05:35:57;;;;;;;15.00;8.83;;;7.40;99.90;;;;;;8328905;28;20186;-66
2023/10/29 05:39:58;;;;;;;9.83;5.73;;;7.30;99.90;;;;;;8326335;28;20221;-66
2023/10/29 05:43:59;;;;;;;18.43;9.53;;;7.30;99.90;;;;;;8335390;28;20217;-65
2023/10/29 05:48:00;;;;;;;16.90;10.23;;;7.30;99.90;;;;;;8331061;28;20182;-66
2023/10/29 05:52:00;;;;;;;19.83;11.97;;;7.30;99.90;;;;;;8327418;28;20194;-66
2023/10/29 05:56:04;;;;;;;14.33;8.60;;;7.40;99.90;;;;;;8326372;28;20213;-67
2023/10/29 06:00:05;;;;;;;12.40;7.77;;;7.50;99.90;;;;;;8325459;28;20218;-66
2023/10/29 06:04:06;;;;;;;8.23;5.50;;;7.60;99.90;;;;;;8327277;28;20268;-67
2023/10/29 06:08:07;;;;;;;6.03;4.43;;;7.60;99.90;;;;;;8329271;28;20193;-65
2023/10/29 06:12:11;;;;;;;28.73;18.53;;;7.70;99.90;;;;;;8331479;28;20286;-66
2023/10/29 06:16:12;;;;;;;20.27;11.50;;;7.80;99.90;;;;;;8326087;28;20190;-66
2023/10/29 06:20:17;;;;;;;12.70;8.40;;;7.90;99.90;;;;;;8341863;28;20220;-66
2023/10/29 06:24:17;;;;;;;11.60;8.30;;;8.10;99.90;;;;;;8337167;28;20214;-66
2023/10/29 06:28:21;;;;;;;12.43;7.20;;;8.20;99.90;;;;;;8328906;28;20194;-66
2023/10/29 06:32:22;;;;;;;6.70;4.40;;;8.30;99.90;;;;;;8329918;28;20459;-68
2023/10/29 06:36:23;;;;;;;5.33;4.13;;;8.40;99.90;;;;;;8330571;28;20444;-63
2023/10/29 06:40:24;;;;;;;7.93;3.90;;;8.60;99.90;;;;;;8333544;28;20226;-64
2023/10/29 06:44:25;;;;;;;8.30;4.20;;;8.80;99.90;;;;;;8332828;28;20221;-65
2023/10/29 06:48:26;;;;;;;6.60;3.90;;;9.00;99.90;;;;;;8332762;28;20193;-65
2023/10/29 06:52:26;;;;;;;5.53;3.73;;;9.30;99.90;;;;;;8331306;28;20218;-63
2023/10/29 06:56:28;;;;;;;5.23;3.43;;;9.40;99.90;;;;;;8329693;28;20212;-65
2023/10/29 07:00:31;;;;;;;5.17;2.77;;;9.60;99.90;;;;;;8334709;28;20245;-64
2023/10/29 07:04:33;;;;;;;4.23;2.60;;;9.80;99.90;;;;;;8327264;28;20301;-65
2023/10/29 07:08:34;;;;;;;5.30;2.37;;;10.00;99.90;;;;;;8336486;28;20207;-63
2023/10/29 07:12:35;;;;;;;6.80;3.00;;;10.20;99.90;;;;;;8325231;28;20197;-65
2023/10/29 07:16:37;;;;;;;6.37;2.93;;;10.40;99.90;;;;;;8330389;28;20182;-65
2023/10/29 07:20:38;;;;;;;5.73;1.90;;;10.50;99.90;;;;;;8333210;28;20551;-65
2023/10/29 07:24:39;;;;;;;8.93;4.30;;;10.60;99.90;;;;;;8329063;28;20201;-66
2023/10/29 07:28:41;;;;;;;23.80;12.47;;;10.80;99.90;;;;;;8330584;28;20190;-64
2023/10/29 07:32:41;;;;;;;22.27;9.33;;;10.90;99.90;;;;;;8328001;28;20222;-64
2023/10/29 07:36:44;;;;;;;7.93;3.00;;;11.20;99.90;;;;;;8331732;28;20186;-63
2023/10/29 07:40:45;;;;;;;7.30;2.70;;;11.40;99.90;;;;;;8326826;28;20247;-65
2023/10/29 07:44:45;;;;;;;5.10;2.27;;;11.60;99.90;;;;;;8330530;28;20214;-64
2023/10/29 07:48:46;;;;;;;4.83;2.20;;;11.70;99.90;;;;;;8333634;28;20186;-63
2023/10/29 07:52:47;;;;;;;7.63;2.13;;;11.90;99.90;;;;;;8326264;28;20197;-65
2023/10/29 07:56:49;;;;;;;3.30;2.20;;;12.00;99.90;;;;;;8331933;28;20608;-69
2023/10/29 08:00:49;;;;;;;4.67;2.60;;;12.20;99.90;;;;;;8327981;28;20206;-64
2023/10/29 08:04:50;;;;;;;5.20;2.50;;;12.40;99.90;;;;;;8332232;28;20214;-66
2023/10/29 08:08:52;;;;;;;8.40;2.93;;;12.50;85.70;;;;;;8331848;28;20180;-68
2023/10/29 08:12:53;;;;;;;5.73;3.53;;;12.70;22.80;;;;;;8326359;28;20201;-67
2023/10/29 08:16:54;;;;;;;5.37;3.07;;;12.90;1.00;;;;;;8333045;28;20187;-69
2023/10/29 08:20:54;;;;;;;5.57;2.63;;;13.20;1.00;;;;;;8327816;28;20193;-68
2023/10/29 08:24:56;;;;;;;4.23;2.80;;;13.40;1.00;;;;;;8329388;28;20182;-68
2023/10/29 08:28:57;;;;;;;4.53;2.30;;;13.50;1.00;;;;;;8329056;28;20280;-69
2023/10/29 08:32:57;;;;;;;3.00;2.13;;;13.70;1.00;;;;;;8347190;28;20186;-70
2023/10/29 08:36:59;;;;;;;3.00;1.83;;;14.00;1.00;;;;;;8332143;28;20185;-65
2023/10/29 08:40:59;;;;;;;4.50;1.87;;;14.20;1.00;;;;;;8327106;28;20181;-68
2023/10/29 08:45:00;;;;;;;3.90;2.17;;;14.40;1.00;;;;;;8325457;28;20194;-68
2023/10/29 08:49:01;;;;;;;3.10;1.40;;;14.50;1.00;;;;;;8329157;28;20216;-69
2023/10/29 08:53:02;;;;;;;2.47;1.70;;;14.60;1.00;;;;;;8328389;28;20197;-66
2023/10/29 08:57:03;;;;;;;3.60;1.60;;;14.70;1.00;;;;;;8334079;28;20289;-67
2023/10/29 09:01:08;;;;;;;5.60;1.63;;;14.80;1.00;;;;;;8337855;28;20687;-66
2023/10/29 09:05:10;;;;;;;7.97;1.90;;;15.00;1.00;;;;;;8330048;28;20187;-69
2023/10/29 09:09:12;;;;;;;4.30;1.70;;;15.20;1.00;;;;;;8325715;28;20192;-65
2023/10/29 09:13:13;;;;;;;4.83;1.70;;;15.40;1.00;;;;;;8333483;28;20191;-69
2023/10/29 09:17:14;;;;;;;3.97;1.90;;;15.70;1.00;;;;;;8329834;28;20186;-68
2023/10/29 09:21:15;;;;;;;3.90;1.77;;;16.10;1.00;;;;;;8332920;28;20243;-68
2023/10/29 09:25:15;;;;;;;7.07;1.93;;;16.40;1.00;;;;;;8326291;28;20243;-67
2023/10/29 09:29:16;;;;;;;2.37;1.27;;;16.70;1.00;;;;;;8327263;28;20768;-68
2023/10/29 09:33:17;;;;;;;2.90;1.57;;;16.80;1.00;;;;;;8329076;28;20189;-69
2023/10/29 09:37:18;;;;;;;3.80;1.50;;;16.80;1.00;;;;;;8331246;28;20186;-67
2023/10/29 09:41:19;;;;;;;2.13;1.50;;;16.70;1.00;;;;;;8321632;28;20209;-66
2023/10/29 09:45:24;;;;;;;3.47;1.90;;;16.70;1.00;;;;;;8324000;28;20297;-67
2023/10/29 09:49:25;;;;;;;2.50;1.20;;;16.80;1.00;;;;;;8324899;28;20255;-70
2023/10/29 09:53:28;;;;;;;2.80;1.30;;;16.90;1.00;;;;;;8329017;28;20417;-69
2023/10/29 09:57:30;;;;;;;4.07;1.13;;;17.10;1.00;;;;;;8331002;28;20202;-67
2023/10/29 10:01:30;;;;;;;2.30;0.50;;;17.20;1.00;;;;;;8321467;28;20198;-66
2023/10/29 10:05:32;;;;;;;0.83;0.40;;;17.50;1.00;;;;;;8329224;28;20732;-69
2023/10/29 10:09:53;;;;;;;1.97;0.50;;;17.90;1.00;;;;;;8326354;28;20214;-68
2023/10/29 10:13:54;;;;;;;1.20;0.60;;;18.40;1.00;;;;;;8330880;28;20178;-64
2023/10/29 10:18:07;;;;;;;2.33;0.70;;;18.70;1.00;;;;;;8337920;28;20267;-64
2023/10/29 10:22:08;;;;;;;1.80;0.60;;;19.10;1.00;;;;;;8333607;28;20201;-64
2023/10/29 10:26:08;;;;;;;1.07;0.50;;;19.40;1.00;;;;;;8333921;28;20508;-66
2023/10/29 10:30:25;;;;;;;1.00;0.50;;;19.70;1.00;;;;;;8326968;28;20206;-66
2023/10/29 10:34:26;;;;;;;1.90;0.53;;;19.80;1.00;;;;;;8340037;28;20204;-65
2023/10/29 10:38:27;;;;;;;1.23;0.50;;;19.90;1.00;;;;;;8335280;28;20209;-65
2023/10/29 10:42:28;;;;;;;1.67;0.50;;;20.20;1.00;;;;;;8334482;28;20276;-67
2023/10/29 10:46:33;;;;;;;1.50;0.50;;;20.40;1.00;;;;;;8339399;28;20182;-66
2023/10/29 10:50:38;;;;;;;1.60;0.53;;;20.30;1.00;;;;;;8335888;28;20182;-65
2023/10/29 10:54:40;;;;;;;0.70;0.50;;;20.10;1.00;;;;;;8327072;28;20225;-65
2023/10/29 10:58:44;;;;;;;1.27;0.60;;;20.20;1.00;;;;;;8333832;28;20189;-63
2023/10/29 11:02:46;;;;;;;2.27;0.60;;;20.30;1.00;;;;;;8332115;28;20206;-63
2023/10/29 11:06:48;;;;;;;1.60;0.60;;;20.40;1.00;;;;;;8338202;28;20204;-66
2023/10/29 11:10:49;;;;;;;1.77;0.57;;;20.40;1.00;;;;;;8333007;28;20292;-66
2023/10/29 11:15:16;;;;;;;1.63;0.70;;;20.30;1.00;;;;;;8348232;28;20189;-66
2023/10/29 11:19:42;;;;;;;1.10;0.40;;;20.30;1.00;;;;;;8351813;28;20410;-65
2023/10/29 11:23:43;;;;;;;0.87;0.57;;;20.30;1.00;;;;;;8321258;28;20220;-69
2023/10/29 11:27:46;;;;;;;1.87;0.77;;;20.20;1.00;;;;;;8323099;28;20226;-69
2023/10/29 11:31:47;;;;;;;1.07;0.50;;;20.10;1.00;;;;;;8376227;28;20258;-70
2023/10/29 11:35:47;;;;;;;1.40;0.60;;;20.10;1.00;;;;;;8341185;28;20205;-66
2023/10/29 11:39:48;;;;;;;0.90;0.50;;;20.10;1.00;;;;;;8345238;28;20267;-65
2023/10/29 11:44:21;;;;;;;1.27;0.87;;;20.10;1.00;;;;;;8327768;28;20213;-66
2023/10/29 11:48:21;;;;;;;1.27;0.70;;;20.00;1.00;;;;;;8295260;28;20223;-66
2023/10/29 11:52:30;;;;;;;1.17;0.70;;;19.90;1.00;;;;;;8297394;28;20254;-67
2023/10/29 11:56:33;;;;;;;1.30;0.80;;;19.80;1.00;;;;;;8311772;28;20221;-65
2023/10/29 12:00:38;;;;;;;1.70;0.90;;;19.90;1.00;;;;;;8331518;28;20212;-65
2023/10/29 12:04:39;;;;;;;0.73;0.53;;;20.10;1.00;;;;;;8325265;28;20309;-65
2023/10/29 12:08:41;;;;;;;0.97;0.60;;;20.40;1.00;;;;;;8326726;28;20174;-66
2023/10/29 12:12:52;;;;;;;1.30;0.70;;;20.40;1.00;;;;;;8325863;28;20255;-65
2023/10/29 12:16:53;;;;;;;2.27;0.73;;;20.40;1.00;;;;;;8348463;28;20198;-65
2023/10/29 12:21:04;;;;;;;1.60;0.70;;;20.50;1.00;;;;;;8326760;28;20190;-63
2023/10/29 12:25:08;;;;;;;1.77;0.87;;;20.30;1.00;;;;;;8325641;28;20228;-67
2023/10/29 12:29:10;;;;;;;0.77;0.60;;;20.10;1.00;;;;;;8357555;28;20179;-63
2023/10/29 12:33:33;;;;;;;1.07;0.57;;;19.80;1.00;;;;;;8334430;28;20182;-65
2023/10/29 12:37:34;;;;;;;1.10;0.70;;;19.60;1.00;;;;;;8335385;28;20178;-64
2023/10/29 12:41:34;;;;;;;1.03;0.60;;;19.40;1.00;;;;;;8361574;28;20260;-65
2023/10/29 12:45:35;;;;;;;3.17;1.03;;;19.20;1.00;;;;;;8327945;28;20181;-65
2023/10/29 12:49:36;;;;;;;1.53;0.87;;;18.90;1.00;;;;;;8346042;28;20237;-64
2023/10/29 12:53:37;;;;;;;1.93;0.90;;;18.70;1.00;;;;;;8327953;28;20182;-64
2023/10/29 12:57:38;;;;;;;1.23;0.90;;;18.40;1.00;;;;;;8325029;28;20287;-63
2023/10/29 13:01:52;;;;;;;2.77;1.23;;;18.20;1.00;;;;;;8326109;28;20267;-64
2023/10/29 13:05:56;;;;;;;1.73;1.03;;;18.10;1.00;;;;;;8329403;28;20202;-64
2023/10/29 13:10:03;;;;;;;2.10;1.00;;;17.90;1.00;;;;;;8324714;28;20268;-62
2023/10/29 13:14:04;;;;;;;2.37;0.90;;;17.80;1.00;;;;;;8327299;28;20275;-65
2023/10/29 13:18:05;;;;;;;1.40;0.77;;;17.80;1.00;;;;;;8344230;28;20244;-62
2023/10/29 13:22:06;;;;;;;1.20;0.70;;;17.70;1.00;;;;;;8324813;28;20569;-64
2023/10/29 13:26:07;;;;;;;1.30;0.80;;;17.70;1.00;;;;;;8325823;28;20416;-64
2023/10/29 13:30:08;;;;;;;3.17;0.83;;;17.60;1.00;;;;;;8328141;28;20182;-62
2023/10/29 13:34:10;;;;;;;1.30;0.90;;;17.60;1.00;;;;;;8359258;28;20197;-64
2023/10/29 13:38:12;;;;;;;1.70;1.03;;;17.50;1.00;;;;;;8356808;28;20185;-65
2023/10/29 13:42:13;;;;;;;1.77;1.10;;;17.40;1.00;;;;;;8342441;28;20312;-64
2023/10/29 13:46:14;;;;;;;2.00;1.30;;;17.30;1.00;;;;;;8327687;28;20288;-65
2023/10/29 13:50:15;;;;;;;1.80;1.30;;;17.20;1.00;;;;;;8334637;28;20309;-67
2023/10/29 13:54:16;;;;;;;1.80;1.30;;;17.10;1.00;;;;;;8333438;28;20190;-68
2023/10/29 13:58:17;;;;;;;1.63;1.20;;;16.90;1.00;;;;;;8369533;28;20186;-68
2023/10/29 14:02:18;;;;;;;1.80;1.13;;;16.80;1.00;;;;;;8328795;28;20512;-68
2023/10/29 14:06:19;;;;;;;2.27;1.23;;;16.80;1.00;;;;;;8333486;28;20625;-68
2023/10/29 14:10:20;;;;;;;2.30;1.30;;;16.80;1.00;;;;;;8331052;28;20257;-68
2023/10/29 14:14:23;;;;;;;3.17;1.20;;;16.80;1.00;;;;;;8330566;28;20190;-67
2023/10/29 14:18:24;;;;;;;2.03;1.30;;;16.90;1.00;;;;;;8341019;28;20190;-67
2023/10/29 14:22:25;;;;;;;1.67;1.03;;;16.90;1.00;;;;;;8331338;28;20209;-68
2023/10/29 14:26:26;;;;;;;1.97;1.53;;;16.90;1.00;;;;;;8335557;28;20288;-68
2023/10/29 14:30:28;;;;;;;2.97;1.80;;;16.80;1.00;;;;;;8335233;28;20231;-68
2023/10/29 14:34:29;;;;;;;2.40;1.80;;;16.60;1.00;;;;;;8332936;28;20182;-69
2023/10/29 14:38:31;;;;;;;3.53;2.00;;;16.40;1.00;;;;;;8336511;28;22031;-69
2023/10/29 14:42:31;;;;;;;1.97;1.57;;;16.20;1.00;;;;;;8330325;28;20217;-69
2023/10/29 14:46:35;;;;;;;2.37;1.67;;;16.00;1.00;;;;;;8362594;28;20185;-68
2023/10/29 14:50:36;;;;;;;2.80;1.70;;;15.90;1.00;;;;;;8333258;28;20186;-69
2023/10/29 14:54:37;;;;;;;2.30;1.90;;;15.80;1.00;;;;;;8330045;28;20203;-68
2023/10/29 14:58:38;;;;;;;3.27;2.10;;;15.70;1.00;;;;;;8330080;28;20192;-67
2023/10/29 15:02:39;;;;;;;5.23;1.97;;;15.60;1.00;;;;;;8328320;28;20212;-70
2023/10/29 15:06:40;;;;;;;5.97;2.33;;;15.50;1.00;;;;;;8329550;28;20567;-65
2023/10/29 15:10:41;;;;;;;5.03;3.50;;;15.40;1.00;;;;;;8332456;28;20192;-66
2023/10/29 15:14:48;;;;;;;4.37;3.33;;;15.40;1.00;;;;;;8330675;28;20205;-68
2023/10/29 15:18:49;;;;;;;5.37;2.87;;;15.30;1.00;;;;;;8328813;28;20248;-68
2023/10/29 15:22:50;;;;;;;4.20;2.53;;;15.20;1.00;;;;;;8358384;28;20318;-70
2023/10/29 15:26:51;;;;;;;8.83;2.53;;;15.20;1.00;;;;;;8329853;28;20198;-68
2023/10/29 15:30:51;;;;;;;5.70;2.83;;;15.10;1.00;;;;;;8329746;28;20175;-68
2023/10/29 15:34:52;;;;;;;4.90;2.70;;;15.00;1.00;;;;;;8327040;28;20186;-69
2023/10/29 15:38:53;;;;;;;5.30;2.97;;;15.00;1.00;;;;;;8330341;28;20186;-69
2023/10/29 15:42:54;;;;;;;3.23;2.37;;;14.90;1.00;;;;;;8325352;28;20222;-68
2023/10/29 15:46:55;;;;;;;4.97;2.63;;;14.80;1.00;;;;;;8335868;28;20189;-68
2023/10/29 15:50:58;;;;;;;4.70;3.33;;;14.70;1.00;;;;;;8334776;28;20182;-68
2023/10/29 15:54:59;;;;;;;4.73;3.37;;;14.60;1.00;;;;;;8326845;28;20198;-68
2023/10/29 15:59:00;;;;;;;3.87;2.43;;;14.50;1.00;;;;;;8333152;28;20256;-68
2023/10/29 16:03:01;;;;;;;4.60;2.60;;;14.50;1.00;;;;;;8330656;28;20194;-67
2023/10/29 16:07:03;;;;;;;3.27;2.83;;;14.50;1.00;;;;;;8330156;28;20178;-65
2023/10/29 16:11:08;;;;;;;4.07;2.53;;;14.40;1.00;;;;;;8330389;28;20596;-67
2023/10/29 16:15:09;;;;;;;4.23;2.70;;;14.40;1.00;;;;;;8358946;28;20214;-67
2023/10/29 16:19:10;;;;;;;3.70;2.63;;;14.40;1.00;;;;;;8330225;28;20186;-65
2023/10/29 16:23:12;;;;;;;4.97;2.87;;;14.30;1.00;;;;;;8325419;28;20259;-68
2023/10/29 16:27:14;;;;;;;5.03;3.00;;;14.30;1.00;;;;;;8346459;28;20464;-62
2023/10/29 16:31:21;;;;;;;4.93;2.83;;;14.20;1.00;;;;;;8331544;28;20348;-64
2023/10/29 16:35:22;;;;;;;4.83;3.00;;;14.20;1.00;;;;;;8357271;28;20179;-64
2023/10/29 16:39:24;;;;;;;4.37;2.83;;;14.10;1.00;;;;;;8325187;28;20257;-64
2023/10/29 16:43:26;;;;;;;6.10;2.97;;;14.00;1.00;;;;;;8327752;28;20347;-63
2023/10/29 16:47:26;;;;;;;3.00;2.20;;;14.00;1.00;;;;;;8329950;28;20190;-62
2023/10/29 16:51:27;;;;;;;3.30;2.30;;;13.90;1.00;;;;;;8329569;28;20516;-64
2023/10/29 16:55:28;;;;;;;3.67;2.10;;;13.90;1.00;;;;;;8325185;28;20204;-64
2023/10/29 16:59:29;;;;;;;3.30;1.90;;;13.90;1.00;;;;;;8326948;28;20229;-63
2023/10/29 17:03:33;;;;;;;3.87;2.47;;;13.90;1.00;;;;;;8327384;28;20244;-62
2023/10/29 17:07:35;;;;;;;3.20;2.13;;;13.90;1.00;;;;;;8330358;28;20191;-63
2023/10/29 17:11:38;;;;;;;3.23;2.40;;;14.00;1.00;;;;;;8343833;28;20178;-62
2023/10/29 17:15:38;;;;;;;4.40;2.13;;;14.00;1.00;;;;;;8329305;28;20375;-63
2023/10/29 17:19:42;;;;;;;3.20;2.13;;;14.10;1.00;;;;;;8329663;28;20179;-62
2023/10/29 17:23:44;;;;;;;5.00;2.20;;;14.00;1.00;;;;;;8329463;28;20266;-64
2023/10/29 17:27:45;;;;;;;3.40;2.07;;;14.00;1.00;;;;;;8322908;28;20191;-63
2023/10/29 17:31:46;;;;;;;5.37;2.90;;;13.90;1.00;;;;;;8327955;28;20190;-63
2023/10/29 17:35:47;;;;;;;3.40;2.53;;;13.90;1.00;;;;;;8325724;28;20221;-62
2023/10/29 17:39:48;;;;;;;5.40;3.47;;;13.90;1.00;;;;;;8329727;28;20193;-64
2023/10/29 17:43:51;;;;;;;5.47;3.00;;;13.90;1.00;;;;;;8325747;28;20241;-63
2023/10/29 17:47:51;;;;;;;7.07;3.80;;;13.80;1.00;;;;;;8329961;28;20229;-63
2023/10/29 17:51:52;;;;;;;5.30;3.23;;;13.70;1.00;;;;;;8328609;28;20312;-61
2023/10/29 17:55:54;;;;;;;6.33;3.33;;;13.70;1.00;;;;;;8328143;28;20199;-62
2023/10/29 17:59:55;;;;;;;5.43;3.40;;;13.60;1.00;;;;;;8359035;28;20205;-63
2023/10/29 18:03:57;;;;;;;6.53;3.67;;;13.60;1.00;;;;;;8330401;28;20335;-61
2023/10/29 18:07:58;;;;;;;7.60;3.90;;;13.60;1.00;;;;;;8331548;28;20214;-64
2023/10/29 18:11:59;;;;;;;6.40;3.10;;;13.60;1.00;;;;;;8323207;28;20194;-64
2023/10/29 18:16:03;;;;;;;7.57;3.57;;;13.60;1.00;;;;;;8328319;28;20182;-64
2023/10/29 18:20:06;;;;;;;4.90;3.30;;;13.50;1.00;;;;;;8331075;28;20263;-63
2023/10/29 18:24:08;;;;;;;4.97;3.40;;;13.50;1.00;;;;;;8329451;28;20190;-64
2023/10/29 18:28:09;;;;;;;6.67;3.87;;;13.50;1.00;;;;;;8328610;28;20182;-63
2023/10/29 18:32:10;;;;;;;7.90;3.77;;;13.50;1.00;;;;;;8327852;28;20186;-64
2023/10/29 18:36:11;;;;;;;5.90;3.53;;;13.50;1.00;;;;;;8334084;28;20182;-63
2023/10/29 18:40:12;;;;;;;5.30;3.43;;;13.40;1.00;;;;;;8346867;28;20182;-65
2023/10/29 18:44:13;;;;;;;4.07;2.90;;;13.40;1.00;;;;;;8329839;28;20202;-66
2023/10/29 18:48:14;;;;;;;4.60;3.17;;;13.30;1.00;;;;;;8332236;28;20314;-66
2023/10/29 18:52:17;;;;;;;4.10;3.23;;;13.30;1.00;;;;;;8334561;28;20193;-68
2023/10/29 18:56:18;;;;;;;4.87;3.83;;;13.30;1.00;;;;;;8337644;28;20201;-68
2023/10/29 19:00:20;;;;;;;6.43;3.70;;;13.20;1.00;;;;;;8334893;28;20268;-68
2023/10/29 19:04:21;;;;;;;6.63;3.57;;;13.20;1.00;;;;;;8347081;28;20231;-67
2023/10/29 19:08:22;;;;;;;6.07;3.73;;;13.10;1.00;;;;;;8345982;28;20193;-67
2023/10/29 19:12:24;;;;;;;5.20;3.40;;;13.10;1.00;;;;;;8328748;28;20197;-65
2023/10/29 19:16:25;;;;;;;6.23;3.40;;;13.00;1.00;;;;;;8338437;28;20196;-68
2023/10/29 19:20:28;;;;;;;6.07;3.20;;;13.00;1.00;;;;;;8332403;28;20187;-66
2023/10/29 19:24:29;;;;;;;6.20;3.33;;;13.00;1.00;;;;;;8331455;28;20612;-67
2023/10/29 19:28:31;;;;;;;6.17;3.37;;;12.90;1.00;;;;;;8327512;28;20249;-67
2023/10/29 19:32:32;;;;;;;6.23;3.00;;;12.90;1.00;;;;;;8328019;28;20226;-65
2023/10/29 19:36:36;;;;;;;6.57;3.73;;;12.70;1.00;;;;;;8329655;28;20189;-67
2023/10/29 19:40:37;;;;;;;4.87;4.03;;;12.60;1.00;;;;;;8327668;28;20217;-67
2023/10/29 19:44:39;;;;;;;5.93;4.10;;;12.50;1.00;;;;;;8328734;28;20239;-68
2023/10/29 19:48:42;;;;;;;7.03;3.70;;;12.40;1.00;;;;;;8332130;28;20186;-68
2023/10/29 19:52:42;;;;;;;6.37;4.10;;;12.30;1.00;;;;;;8361159;28;20194;-68
2023/10/29 19:56:44;;;;;;;6.87;4.17;;;12.30;1.00;;;;;;8330660;28;20236;-67
2023/10/29 20:00:45;;;;;;;3.87;3.13;;;12.20;1.00;;;;;;8330714;28;20313;-65
2023/10/29 20:04:52;;;;;;;4.97;3.33;;;12.10;1.00;;;;;;8328864;28;20216;-65
2023/10/29 20:08:55;;;;;;;5.23;3.43;;;12.00;1.00;;;;;;8329113;28;20185;-66
2023/10/29 20:12:56;;;;;;;5.33;3.63;;;11.90;9.90;;;;;;8320414;28;20336;-66
2023/10/29 20:16:57;;;;;;;4.67;3.33;;;11.70;19.80;;;;;;8331548;28;20185;-67
2023/10/29 20:20:58;;;;;;;4.20;3.17;;;11.60;48.50;;;;;;8334106;28;20245;-65
2023/10/29 20:24:59;;;;;;;5.40;3.40;;;11.40;82.80;;;;;;8327153;28;20216;-65
2023/10/29 20:29:00;;;;;;;5.20;3.97;;;11.30;99.90;;;;;;8330939;28;20230;-67
2023/10/29 20:33:01;;;;;;;4.50;3.27;;;11.10;99.90;;;;;;8325246;28;20193;-66
2023/10/29 20:37:02;;;;;;;5.53;3.63;;;11.00;99.90;;;;;;8332821;28;20322;-67
2023/10/29 20:41:08;;;;;;;7.13;4.17;;;10.80;99.90;;;;;;8329732;28;20495;-66
2023/10/29 20:45:09;;;;;;;5.40;4.00;;;10.70;99.90;;;;;;8324033;28;20235;-67
2023/10/29 20:49:13;;;;;;;6.10;4.27;;;10.60;99.90;;;;;;8329173;28;20480;-66
2023/10/29 20:53:14;;;;;;;8.00;4.70;;;10.60;99.90;;;;;;8327483;28;20194;-67
2023/10/29 20:57:15;;;;;;;7.97;5.43;;;10.60;99.90;;;;;;8323863;28;20205;-66
2023/10/29 21:01:16;;;;;;;7.57;5.47;;;10.60;99.90;;;;;;8324613;28;20313;-66
2023/10/29 21:05:17;;;;;;;9.90;5.40;;;10.70;99.90;;;;;;8333251;28;20300;-65
2023/10/29 21:09:19;;;;;;;8.70;5.27;;;10.60;99.90;;;;;;8325736;28;20193;-66
2023/10/29 21:13:25;;;;;;;5.40;4.43;;;10.60;1.00;;;;;;8340860;28;20193;-66